Acton, Massachusetts
Current Conditions -  °F | °C
As of 12:56 PM on Thursday 30 Oct 2014 (Local Time) from KBED Reporting Station
Overcast Overcast  
Wind Chill: 55°   Ceiling: 7000
Heat Index: 55°   Visibility: 10mi
Dew Point: 39°   Wind: 10mph
Humidity: 55%   Direction: 300°WNW
Pressure: 29.9"   Gusts: NA
Location:  42.49°N, 71.43°W
Report Text: KBED 301656Z 30009KT 10SM OVC070 13/04 A2990 RMK AO2 SLP139 T01280039
Loading
Personal Weather Stations






























Interactive Weather Map New forecast layout! Learn more

10-Day Weather Forecast

Advertisements
Track Severe Weather on mobile